sensor_id;sensor_type;location;lat;lon;timestamp;pressure;altitude;pressure_sealevel;temperature;humidity
74613;BME280;63119;51.788;8.824;2023-05-10T00:00:43;99168.53;;;16.54;87.70
74613;BME280;63119;51.788;8.824;2023-05-10T00:03:08;99177.81;;;16.42;87.94
74613;BME280;63119;51.788;8.824;2023-05-10T00:05:33;99174.06;;;16.27;89.13
74613;BME280;63119;51.788;8.824;2023-05-10T00:07:59;99169.91;;;16.24;88.84
74613;BME280;63119;51.788;8.824;2023-05-10T00:10:25;99171.91;;;16.22;89.12
74613;BME280;63119;51.788;8.824;2023-05-10T00:12:50;99166.69;;;16.13;89.21
74613;BME280;63119;51.788;8.824;2023-05-10T00:15:16;99163.19;;;16.20;89.10
74613;BME280;63119;51.788;8.824;2023-05-10T00:17:41;99158.25;;;16.33;88.55
74613;BME280;63119;51.788;8.824;2023-05-10T00:20:07;99157.38;;;16.17;89.28
74613;BME280;63119;51.788;8.824;2023-05-10T00:22:32;99156.84;;;16.13;89.85
74613;BME280;63119;51.788;8.824;2023-05-10T00:24:58;99146.38;;;16.20;89.76
74613;BME280;63119;51.788;8.824;2023-05-10T00:27:23;99149.63;;;16.48;88.18
74613;BME280;63119;51.788;8.824;2023-05-10T00:29:49;99149.94;;;16.45;87.52
74613;BME280;63119;51.788;8.824;2023-05-10T00:32:14;99148.22;;;16.27;89.12
74613;BME280;63119;51.788;8.824;2023-05-10T00:34:39;99140.84;;;16.21;89.29
74613;BME280;63119;51.788;8.824;2023-05-10T00:37:05;99137.53;;;16.19;89.75
74613;BME280;63119;51.788;8.824;2023-05-10T00:39:30;99138.50;;;16.18;89.85
74613;BME280;63119;51.788;8.824;2023-05-10T00:41:55;99137.53;;;16.27;88.96
74613;BME280;63119;51.788;8.824;2023-05-10T00:44:21;99126.03;;;16.27;88.83
74613;BME280;63119;51.788;8.824;2023-05-10T00:46:47;99136.00;;;16.17;89.53
74613;BME280;63119;51.788;8.824;2023-05-10T00:49:12;99127.81;;;16.18;88.76
74613;BME280;63119;51.788;8.824;2023-05-10T00:51:38;99132.53;;;16.24;88.86
74613;BME280;63119;51.788;8.824;2023-05-10T00:54:03;99133.91;;;16.03;88.82
74613;BME280;63119;51.788;8.824;2023-05-10T00:56:28;99134.44;;;16.06;89.52
74613;BME280;63119;51.788;8.824;2023-05-10T00:58:55;99130.59;;;16.01;89.71
74613;BME280;63119;51.788;8.824;2023-05-10T01:01:20;99122.47;;;16.10;89.39
74613;BME280;63119;51.788;8.824;2023-05-10T01:03:46;99129.84;;;16.16;88.58
74613;BME280;63119;51.788;8.824;2023-05-10T01:06:12;99123.44;;;16.09;88.71
74613;BME280;63119;51.788;8.824;2023-05-10T01:08:37;99121.09;;;16.06;88.89
74613;BME280;63119;51.788;8.824;2023-05-10T01:11:03;99115.47;;;16.17;88.43
74613;BME280;63119;51.788;8.824;2023-05-10T01:13:38;99117.97;;;16.11;87.69
74613;BME280;63119;51.788;8.824;2023-05-10T01:16:05;99116.84;;;15.88;88.14
74613;BME280;63119;51.788;8.824;2023-05-10T01:18:33;99107.84;;;15.89;87.67
74613;BME280;63119;51.788;8.824;2023-05-10T01:24:17;99112.78;;;16.09;87.06
74613;BME280;63119;51.788;8.824;2023-05-10T01:35:03;99114.69;;;15.91;85.24
74613;BME280;63119;51.788;8.824;2023-05-10T01:37:50;99122.66;;;15.83;86.77
74613;BME280;63119;51.788;8.824;2023-05-10T01:42:59;99124.91;;;15.70;86.76
74613;BME280;63119;51.788;8.824;2023-05-10T01:45:55;99127.56;;;15.70;87.95
74613;BME280;63119;51.788;8.824;2023-05-10T01:48:27;99121.19;;;15.63;87.38
74613;BME280;63119;51.788;8.824;2023-05-10T01:50:53;99123.19;;;15.43;88.96
74613;BME280;63119;51.788;8.824;2023-05-10T01:53:20;99125.13;;;15.33;89.53
74613;BME280;63119;51.788;8.824;2023-05-10T01:55:48;99127.34;;;15.38;89.59
74613;BME280;63119;51.788;8.824;2023-05-10T01:58:19;99125.91;;;15.25;90.00
74613;BME280;63119;51.788;8.824;2023-05-10T02:00:46;99119.88;;;15.23;90.62
74613;BME280;63119;51.788;8.824;2023-05-10T02:03:13;99127.44;;;15.10;91.35
74613;BME280;63119;51.788;8.824;2023-05-10T02:05:40;99131.38;;;15.24;90.87
74613;BME280;63119;51.788;8.824;2023-05-10T02:08:07;99133.91;;;15.25;90.92
74613;BME280;63119;51.788;8.824;2023-05-10T02:10:35;99138.06;;;15.28;90.28
74613;BME280;63119;51.788;8.824;2023-05-10T02:13:02;99133.50;;;15.20;89.26
74613;BME280;63119;51.788;8.824;2023-05-10T02:15:28;99136.34;;;15.19;88.77
74613;BME280;63119;51.788;8.824;2023-05-10T02:17:55;99131.22;;;14.90;90.03
74613;BME280;63119;51.788;8.824;2023-05-10T02:20:23;99146.84;;;14.85;90.59
74613;BME280;63119;51.788;8.824;2023-05-10T02:22:52;99152.16;;;14.85;90.67
74613;BME280;63119;51.788;8.824;2023-05-10T02:25:20;99152.84;;;14.87;90.69
74613;BME280;63119;51.788;8.824;2023-05-10T02:27:47;99155.22;;;14.90;90.20
74613;BME280;63119;51.788;8.824;2023-05-10T02:30:14;99154.38;;;14.90;90.91
74613;BME280;63119;51.788;8.824;2023-05-10T02:32:40;99154.84;;;14.85;90.63
74613;BME280;63119;51.788;8.824;2023-05-10T02:35:07;99164.81;;;14.83;90.79
74613;BME280;63119;51.788;8.824;2023-05-10T02:37:34;99162.03;;;14.75;90.48
74613;BME280;63119;51.788;8.824;2023-05-10T02:40:01;99165.13;;;14.80;90.10
74613;BME280;63119;51.788;8.824;2023-05-10T02:42:29;99168.16;;;14.85;90.09
74613;BME280;63119;51.788;8.824;2023-05-10T02:44:57;99168.69;;;14.89;89.80
74613;BME280;63119;51.788;8.824;2023-05-10T02:47:24;99170.81;;;14.85;89.65
74613;BME280;63119;51.788;8.824;2023-05-10T02:49:49;99171.50;;;14.87;90.02
74613;BME280;63119;51.788;8.824;2023-05-10T02:52:21;99173.41;;;14.77;90.03
74613;BME280;63119;51.788;8.824;2023-05-10T02:54:50;99170.81;;;14.85;89.81
74613;BME280;63119;51.788;8.824;2023-05-10T02:57:26;99176.44;;;14.82;90.24
74613;BME280;63119;51.788;8.824;2023-05-10T02:59:52;99179.09;;;14.82;89.86
74613;BME280;63119;51.788;8.824;2023-05-10T03:02:18;99176.53;;;14.90;89.69
74613;BME280;63119;51.788;8.824;2023-05-10T03:04:43;99172.09;;;14.99;88.74
74613;BME280;63119;51.788;8.824;2023-05-10T03:07:09;99168.31;;;15.01;88.94
74613;BME280;63119;51.788;8.824;2023-05-10T03:09:34;99176.91;;;14.95;88.27
74613;BME280;63119;51.788;8.824;2023-05-10T03:12:27;99172.41;;;14.96;88.61
74613;BME280;63119;51.788;8.824;2023-05-10T03:17:48;99175.31;;;15.02;89.32
74613;BME280;63119;51.788;8.824;2023-05-10T03:20:23;99175.31;;;15.02;88.20
74613;BME280;63119;51.788;8.824;2023-05-10T03:22:56;99176.69;;;14.89;88.81
74613;BME280;63119;51.788;8.824;2023-05-10T03:25:25;99176.44;;;15.00;88.04
74613;BME280;63119;51.788;8.824;2023-05-10T03:27:51;99169.38;;;14.91;88.59
74613;BME280;63119;51.788;8.824;2023-05-10T03:30:18;99180.56;;;14.94;88.44
74613;BME280;63119;51.788;8.824;2023-05-10T03:32:44;99173.19;;;14.88;88.12
74613;BME280;63119;51.788;8.824;2023-05-10T03:35:12;99178.13;;;14.83;88.30
74613;BME280;63119;51.788;8.824;2023-05-10T03:37:38;99186.50;;;14.88;88.36
74613;BME280;63119;51.788;8.824;2023-05-10T03:40:03;99181.59;;;14.84;88.80
74613;BME280;63119;51.788;8.824;2023-05-10T03:42:29;99185.81;;;14.86;88.78
74613;BME280;63119;51.788;8.824;2023-05-10T03:44:54;99186.19;;;14.91;88.44
74613;BME280;63119;51.788;8.824;2023-05-10T03:47:19;99184.22;;;14.93;88.39
74613;BME280;63119;51.788;8.824;2023-05-10T03:49:45;99186.41;;;14.80;88.50
74613;BME280;63119;51.788;8.824;2023-05-10T03:52:10;99185.34;;;14.73;89.19
74613;BME280;63119;51.788;8.824;2023-05-10T03:54:35;99186.47;;;14.70;89.67
74613;BME280;63119;51.788;8.824;2023-05-10T03:57:01;99186.84;;;14.75;89.04
74613;BME280;63119;51.788;8.824;2023-05-10T03:59:26;99194.00;;;14.75;88.79
74613;BME280;63119;51.788;8.824;2023-05-10T04:01:51;99191.34;;;14.75;89.43
74613;BME280;63119;51.788;8.824;2023-05-10T04:04:17;99193.03;;;14.76;89.04
74613;BME280;63119;51.788;8.824;2023-05-10T04:06:43;99197.38;;;14.77;89.13
74613;BME280;63119;51.788;8.824;2023-05-10T04:09:08;99185.09;;;14.84;88.76
74613;BME280;63119;51.788;8.824;2023-05-10T04:11:34;99193.03;;;14.76;88.22
74613;BME280;63119;51.788;8.824;2023-05-10T04:13:59;99196.66;;;14.75;89.41
74613;BME280;63119;51.788;8.824;2023-05-10T04:16:24;99200.03;;;14.77;88.71
74613;BME280;63119;51.788;8.824;2023-05-10T04:18:50;99196.84;;;14.73;88.05
74613;BME280;63119;51.788;8.824;2023-05-10T04:21:15;99206.16;;;14.60;89.69
74613;BME280;63119;51.788;8.824;2023-05-10T04:23:41;99206.75;;;14.54;89.11
74613;BME280;63119;51.788;8.824;2023-05-10T04:26:06;99214.84;;;14.62;89.24
74613;BME280;63119;51.788;8.824;2023-05-10T04:28:32;99216.97;;;14.58;89.53
74613;BME280;63119;51.788;8.824;2023-05-10T04:31:05;99212.66;;;14.48;89.87
74613;BME280;63119;51.788;8.824;2023-05-10T04:33:31;99224.69;;;14.52;90.02
74613;BME280;63119;51.788;8.824;2023-05-10T04:35:57;99217.19;;;14.38;89.88
74613;BME280;63119;51.788;8.824;2023-05-10T04:38:22;99216.19;;;14.39;90.52
74613;BME280;63119;51.788;8.824;2023-05-10T04:40:48;99226.72;;;14.40;90.37
74613;BME280;63119;51.788;8.824;2023-05-10T04:43:13;99233.56;;;14.43;90.39
74613;BME280;63119;51.788;8.824;2023-05-10T04:45:38;99228.38;;;14.41;89.99
74613;BME280;63119;51.788;8.824;2023-05-10T04:48:04;99242.13;;;14.37;90.22
74613;BME280;63119;51.788;8.824;2023-05-10T04:50:29;99239.19;;;14.40;89.31
74613;BME280;63119;51.788;8.824;2023-05-10T04:52:54;99244.34;;;14.41;89.41
74613;BME280;63119;51.788;8.824;2023-05-10T04:55:20;99245.19;;;14.32;89.30
74613;BME280;63119;51.788;8.824;2023-05-10T04:57:45;99250.94;;;14.28;89.81
74613;BME280;63119;51.788;8.824;2023-05-10T05:00:11;99261.44;;;14.39;88.96
74613;BME280;63119;51.788;8.824;2023-05-10T05:02:36;99264.34;;;14.55;88.34
74613;BME280;63119;51.788;8.824;2023-05-10T05:05:01;99254.47;;;14.38;88.63
74613;BME280;63119;51.788;8.824;2023-05-10T05:07:27;99262.88;;;14.33;88.67
74613;BME280;63119;51.788;8.824;2023-05-10T05:09:52;99264.09;;;14.39;88.01
74613;BME280;63119;51.788;8.824;2023-05-10T05:12:17;99269.59;;;14.28;88.75
74613;BME280;63119;51.788;8.824;2023-05-10T05:14:42;99272.53;;;14.34;88.81
74613;BME280;63119;51.788;8.824;2023-05-10T05:17:08;99273.78;;;14.30;88.47
74613;BME280;63119;51.788;8.824;2023-05-10T05:19:33;99275.19;;;14.44;88.40
74613;BME280;63119;51.788;8.824;2023-05-10T05:21:58;99273.59;;;14.51;88.14
74613;BME280;63119;51.788;8.824;2023-05-10T05:24:24;99287.75;;;14.51;88.31
74613;BME280;63119;51.788;8.824;2023-05-10T05:26:49;99291.53;;;14.49;88.02
74613;BME280;63119;51.788;8.824;2023-05-10T05:29:14;99291.16;;;14.44;87.49
74613;BME280;63119;51.788;8.824;2023-05-10T05:31:40;99293.81;;;14.44;88.40
74613;BME280;63119;51.788;8.824;2023-05-10T05:34:05;99300.50;;;14.48;87.08
74613;BME280;63119;51.788;8.824;2023-05-10T05:36:30;99295.91;;;14.40;88.22
74613;BME280;63119;51.788;8.824;2023-05-10T05:38:56;99301.53;;;14.28;88.24
74613;BME280;63119;51.788;8.824;2023-05-10T05:41:22;99306.41;;;14.32;87.87
74613;BME280;63119;51.788;8.824;2023-05-10T05:43:48;99314.28;;;14.34;88.38
74613;BME280;63119;51.788;8.824;2023-05-10T05:46:14;99310.47;;;14.36;88.21
74613;BME280;63119;51.788;8.824;2023-05-10T05:48:39;99316.34;;;14.30;88.63
74613;BME280;63119;51.788;8.824;2023-05-10T05:51:04;99313.31;;;14.35;88.22
74613;BME280;63119;51.788;8.824;2023-05-10T05:53:30;99326.16;;;14.39;87.76
74613;BME280;63119;51.788;8.824;2023-05-10T05:55:57;99322.53;;;14.40;87.68
74613;BME280;63119;51.788;8.824;2023-05-10T05:58:23;99322.66;;;14.29;88.11
74613;BME280;63119;51.788;8.824;2023-05-10T06:00:50;99334.72;;;14.33;86.75
74613;BME280;63119;51.788;8.824;2023-05-10T06:03:15;99330.09;;;14.26;87.72
74613;BME280;63119;51.788;8.824;2023-05-10T06:05:42;99336.81;;;14.39;87.51
74613;BME280;63119;51.788;8.824;2023-05-10T06:08:07;99339.22;;;14.33;87.93
74613;BME280;63119;51.788;8.824;2023-05-10T06:10:33;99350.94;;;14.30;88.25
74613;BME280;63119;51.788;8.824;2023-05-10T06:12:58;99351.63;;;14.32;87.57
74613;BME280;63119;51.788;8.824;2023-05-10T06:15:23;99354.19;;;14.24;87.30
74613;BME280;63119;51.788;8.824;2023-05-10T06:17:48;99355.03;;;14.24;87.31
74613;BME280;63119;51.788;8.824;2023-05-10T06:20:17;99355.91;;;14.35;87.65
74613;BME280;63119;51.788;8.824;2023-05-10T06:22:42;99359.81;;;14.40;87.83
74613;BME280;63119;51.788;8.824;2023-05-10T06:25:08;99359.09;;;14.29;87.28
74613;BME280;63119;51.788;8.824;2023-05-10T06:27:33;99352.50;;;14.33;87.37
74613;BME280;63119;51.788;8.824;2023-05-10T06:29:59;99364.69;;;14.26;87.75
74613;BME280;63119;51.788;8.824;2023-05-10T06:32:24;99364.25;;;14.20;87.60
74613;BME280;63119;51.788;8.824;2023-05-10T06:34:49;99371.56;;;14.09;86.85
74613;BME280;63119;51.788;8.824;2023-05-10T06:37:14;99376.59;;;14.02;87.52
74613;BME280;63119;51.788;8.824;2023-05-10T06:39:40;99380.22;;;14.01;87.51
74613;BME280;63119;51.788;8.824;2023-05-10T06:42:05;99384.03;;;14.08;87.18
74613;BME280;63119;51.788;8.824;2023-05-10T06:44:30;99385.56;;;14.11;87.60
74613;BME280;63119;51.788;8.824;2023-05-10T06:46:56;99391.59;;;14.22;87.11
74613;BME280;63119;51.788;8.824;2023-05-10T06:49:21;99396.78;;;14.34;86.83
74613;BME280;63119;51.788;8.824;2023-05-10T06:51:47;99391.00;;;14.48;86.74
74613;BME280;63119;51.788;8.824;2023-05-10T06:54:12;99391.44;;;14.53;87.59
74613;BME280;63119;51.788;8.824;2023-05-10T06:56:37;99402.31;;;14.59;86.37
74613;BME280;63119;51.788;8.824;2023-05-10T06:59:02;99394.22;;;14.61;85.95
74613;BME280;63119;51.788;8.824;2023-05-10T07:01:28;99399.66;;;14.59;85.88
74613;BME280;63119;51.788;8.824;2023-05-10T07:03:53;99400.53;;;14.50;85.56
74613;BME280;63119;51.788;8.824;2023-05-10T07:06:18;99403.91;;;14.43;86.15
74613;BME280;63119;51.788;8.824;2023-05-10T07:08:44;99409.38;;;14.32;86.13
74613;BME280;63119;51.788;8.824;2023-05-10T07:11:09;99409.13;;;14.35;86.09
74613;BME280;63119;51.788;8.824;2023-05-10T07:13:35;99407.69;;;14.50;87.08
74613;BME280;63119;51.788;8.824;2023-05-10T07:16:01;99412.84;;;14.61;87.00
74613;BME280;63119;51.788;8.824;2023-05-10T07:18:27;99416.50;;;14.60;86.64
74613;BME280;63119;51.788;8.824;2023-05-10T07:20:53;99414.97;;;14.57;85.36
74613;BME280;63119;51.788;8.824;2023-05-10T07:23:18;99418.88;;;14.63;84.91
74613;BME280;63119;51.788;8.824;2023-05-10T07:25:48;99421.69;;;14.52;84.91
74613;BME280;63119;51.788;8.824;2023-05-10T07:28:15;99420.16;;;14.59;85.58
74613;BME280;63119;51.788;8.824;2023-05-10T07:30:41;99421.41;;;14.55;86.42
74613;BME280;63119;51.788;8.824;2023-05-10T07:33:08;99427.59;;;14.55;85.60
74613;BME280;63119;51.788;8.824;2023-05-10T07:35:34;99427.44;;;14.57;86.45
74613;BME280;63119;51.788;8.824;2023-05-10T07:38:00;99431.22;;;14.54;86.38
74613;BME280;63119;51.788;8.824;2023-05-10T07:40:25;99443.53;;;14.65;85.56
74613;BME280;63119;51.788;8.824;2023-05-10T07:42:51;99433.69;;;14.85;85.72
74613;BME280;63119;51.788;8.824;2023-05-10T07:45:17;99433.09;;;14.91;86.02
74613;BME280;63119;51.788;8.824;2023-05-10T07:47:42;99430.97;;;14.94;85.19
74613;BME280;63119;51.788;8.824;2023-05-10T07:50:07;99425.47;;;15.05;84.20
74613;BME280;63119;51.788;8.824;2023-05-10T07:52:33;99427.16;;;15.06;84.63
74613;BME280;63119;51.788;8.824;2023-05-10T07:54:58;99440.78;;;14.94;84.45
74613;BME280;63119;51.788;8.824;2023-05-10T07:57:23;99428.72;;;14.99;84.95
74613;BME280;63119;51.788;8.824;2023-05-10T07:59:48;99435.34;;;14.95;84.33
74613;BME280;63119;51.788;8.824;2023-05-10T08:02:14;99432.59;;;15.14;84.55
74613;BME280;63119;51.788;8.824;2023-05-10T08:04:39;99438.22;;;15.48;84.78
74613;BME280;63119;51.788;8.824;2023-05-10T08:07:04;99431.94;;;15.67;83.19
74613;BME280;63119;51.788;8.824;2023-05-10T08:09:29;99437.66;;;15.72;82.69
74613;BME280;63119;51.788;8.824;2023-05-10T08:11:55;99443.59;;;15.66;82.44
74613;BME280;63119;51.788;8.824;2023-05-10T08:14:20;99443.41;;;15.50;82.17
74613;BME280;63119;51.788;8.824;2023-05-10T08:16:45;99439.25;;;15.65;83.16
74613;BME280;63119;51.788;8.824;2023-05-10T08:19:10;99447.59;;;15.79;83.71
74613;BME280;63119;51.788;8.824;2023-05-10T08:21:36;99444.41;;;15.94;81.65
74613;BME280;63119;51.788;8.824;2023-05-10T08:24:01;99455.91;;;15.94;80.45
74613;BME280;63119;51.788;8.824;2023-05-10T08:26:26;99455.00;;;16.03;80.32
74613;BME280;63119;51.788;8.824;2023-05-10T08:28:51;99451.44;;;16.12;81.02
74613;BME280;63119;51.788;8.824;2023-05-10T08:31:17;99450.28;;;16.32;80.84
74613;BME280;63119;51.788;8.824;2023-05-10T08:33:43;99448.75;;;16.30;78.05
74613;BME280;63119;51.788;8.824;2023-05-10T08:36:08;99451.59;;;16.11;80.01
74613;BME280;63119;51.788;8.824;2023-05-10T08:38:33;99460.59;;;16.10;79.88
74613;BME280;63119;51.788;8.824;2023-05-10T08:40:59;99464.63;;;15.69;81.04
74613;BME280;63119;51.788;8.824;2023-05-10T08:43:27;99460.94;;;15.52;83.36
74613;BME280;63119;51.788;8.824;2023-05-10T08:45:54;99468.03;;;15.24;84.07
74613;BME280;63119;51.788;8.824;2023-05-10T08:48:22;99468.44;;;15.29;84.27
74613;BME280;63119;51.788;8.824;2023-05-10T08:50:48;99470.63;;;15.44;84.22
74613;BME280;63119;51.788;8.824;2023-05-10T08:53:14;99468.28;;;15.41;84.03
74613;BME280;63119;51.788;8.824;2023-05-10T08:55:41;99481.38;;;15.61;85.19
74613;BME280;63119;51.788;8.824;2023-05-10T08:58:08;99486.13;;;15.67;84.63
74613;BME280;63119;51.788;8.824;2023-05-10T09:00:34;99477.38;;;15.75;83.98
74613;BME280;63119;51.788;8.824;2023-05-10T09:03:00;99482.69;;;15.75;83.71
74613;BME280;63119;51.788;8.824;2023-05-10T09:05:26;99483.88;;;15.63;85.38
74613;BME280;63119;51.788;8.824;2023-05-10T09:07:52;99492.19;;;15.60;85.26
74613;BME280;63119;51.788;8.824;2023-05-10T09:10:18;99487.88;;;15.59;83.62
74613;BME280;63119;51.788;8.824;2023-05-10T09:12:44;99498.41;;;15.41;84.85
74613;BME280;63119;51.788;8.824;2023-05-10T09:15:10;99493.91;;;15.42;84.54
74613;BME280;63119;51.788;8.824;2023-05-10T09:17:37;99492.78;;;15.44;85.30
74613;BME280;63119;51.788;8.824;2023-05-10T09:20:04;99496.03;;;15.75;84.36
74613;BME280;63119;51.788;8.824;2023-05-10T09:22:30;99493.81;;;15.98;82.95
74613;BME280;63119;51.788;8.824;2023-05-10T09:27:31;99494.66;;;16.51;83.13
74613;BME280;63119;51.788;8.824;2023-05-10T09:29:56;99493.16;;;16.49;82.46
74613;BME280;63119;51.788;8.824;2023-05-10T09:32:36;99507.72;;;16.01;81.75
74613;BME280;63119;51.788;8.824;2023-05-10T09:35:08;99498.50;;;16.13;81.35
74613;BME280;63119;51.788;8.824;2023-05-10T09:37:34;99508.19;;;16.32;80.69
74613;BME280;63119;51.788;8.824;2023-05-10T09:40:00;99501.84;;;16.51;80.06
74613;BME280;63119;51.788;8.824;2023-05-10T09:42:25;99506.50;;;16.49;79.75
74613;BME280;63119;51.788;8.824;2023-05-10T09:44:50;99512.22;;;16.54;80.82
74613;BME280;63119;51.788;8.824;2023-05-10T09:47:19;99499.22;;;16.68;80.79
74613;BME280;63119;51.788;8.824;2023-05-10T09:49:49;99505.16;;;16.62;81.18
74613;BME280;63119;51.788;8.824;2023-05-10T09:52:14;99517.44;;;16.55;81.13
74613;BME280;63119;51.788;8.824;2023-05-10T09:54:45;99513.38;;;16.51;80.28
74613;BME280;63119;51.788;8.824;2023-05-10T09:57:21;99510.84;;;16.85;79.94
74613;BME280;63119;51.788;8.824;2023-05-10T09:59:47;99513.94;;;17.24;79.58
74613;BME280;63119;51.788;8.824;2023-05-10T10:02:13;99515.88;;;17.39;77.88
74613;BME280;63119;51.788;8.824;2023-05-10T10:04:42;99507.38;;;17.70;76.78
74613;BME280;63119;51.788;8.824;2023-05-10T10:07:07;99512.94;;;17.84;76.50
74613;BME280;63119;51.788;8.824;2023-05-10T10:09:34;99519.94;;;18.19;75.58
74613;BME280;63119;51.788;8.824;2023-05-10T10:12:00;99511.69;;;18.05;76.25
74613;BME280;63119;51.788;8.824;2023-05-10T10:14:26;99511.81;;;17.95;74.77
74613;BME280;63119;51.788;8.824;2023-05-10T10:16:52;99503.72;;;17.79;70.09
74613;BME280;63119;51.788;8.824;2023-05-10T10:19:19;99507.38;;;17.70;72.46
74613;BME280;63119;51.788;8.824;2023-05-10T10:21:45;99509.69;;;17.57;73.21
74613;BME280;63119;51.788;8.824;2023-05-10T10:24:10;99509.56;;;17.40;73.03
74613;BME280;63119;51.788;8.824;2023-05-10T10:26:36;99509.44;;;17.24;74.33
74613;BME280;63119;51.788;8.824;2023-05-10T10:31:47;99511.25;;;17.16;74.63
74613;BME280;63119;51.788;8.824;2023-05-10T10:34:25;99509.28;;;17.00;74.36
74613;BME280;63119;51.788;8.824;2023-05-10T10:36:51;99515.13;;;17.21;74.60
74613;BME280;63119;51.788;8.824;2023-05-10T10:39:48;99498.81;;;17.32;73.94
74613;BME280;63119;51.788;8.824;2023-05-10T10:42:46;99506.66;;;18.01;72.51
74613;BME280;63119;51.788;8.824;2023-05-10T10:45:12;99509.81;;;18.71;71.94
74613;BME280;63119;51.788;8.824;2023-05-10T10:47:38;99504.78;;;19.00;68.00
74613;BME280;63119;51.788;8.824;2023-05-10T10:50:05;99499.44;;;18.92;67.12
74613;BME280;63119;51.788;8.824;2023-05-10T10:52:39;99502.88;;;19.41;66.08
74613;BME280;63119;51.788;8.824;2023-05-10T10:55:17;99501.31;;;19.55;65.19
74613;BME280;63119;51.788;8.824;2023-05-10T11:02:46;99503.47;;;18.96;67.50
74613;BME280;63119;51.788;8.824;2023-05-10T11:07:52;99502.75;;;19.10;67.06
74613;BME280;63119;51.788;8.824;2023-05-10T11:10:22;99498.09;;;19.68;65.54
74613;BME280;63119;51.788;8.824;2023-05-10T11:13:02;99494.81;;;19.88;64.26
74613;BME280;63119;51.788;8.824;2023-05-10T11:15:30;99500.66;;;19.92;63.56
74613;BME280;63119;51.788;8.824;2023-05-10T11:17:56;99498.38;;;19.81;63.41
74613;BME280;63119;51.788;8.824;2023-05-10T11:20:21;99495.28;;;20.00;62.64
74613;BME280;63119;51.788;8.824;2023-05-10T11:22:53;99495.84;;;19.48;63.43
74613;BME280;63119;51.788;8.824;2023-05-10T11:25:19;99494.38;;;19.14;61.93
74613;BME280;63119;51.788;8.824;2023-05-10T11:27:47;99495.50;;;19.43;62.96
74613;BME280;63119;51.788;8.824;2023-05-10T11:30:13;99499.66;;;19.54;64.19
74613;BME280;63119;51.788;8.824;2023-05-10T11:32:40;99511.25;;;19.46;62.83
74613;BME280;63119;51.788;8.824;2023-05-10T11:35:10;99506.41;;;19.42;62.01
74613;BME280;63119;51.788;8.824;2023-05-10T11:37:35;99494.47;;;19.36;62.55
74613;BME280;63119;51.788;8.824;2023-05-10T11:40:01;99501.53;;;19.21;62.23
74613;BME280;63119;51.788;8.824;2023-05-10T11:42:27;99509.25;;;19.24;63.38
74613;BME280;63119;51.788;8.824;2023-05-10T11:44:53;99496.69;;;19.41;63.57
74613;BME280;63119;51.788;8.824;2023-05-10T11:47:19;99499.13;;;19.58;62.20
74613;BME280;63119;51.788;8.824;2023-05-10T11:49:46;99501.22;;;19.87;62.00
74613;BME280;63119;51.788;8.824;2023-05-10T11:52:11;99512.09;;;19.94;59.79
74613;BME280;63119;51.788;8.824;2023-05-10T11:54:36;99517.16;;;20.19;60.58
74613;BME280;63119;51.788;8.824;2023-05-10T11:57:02;99511.63;;;20.13;57.84
74613;BME280;63119;51.788;8.824;2023-05-10T11:59:28;99512.44;;;19.91;59.53
74613;BME280;63119;51.788;8.824;2023-05-10T12:01:53;99521.50;;;20.29;60.03
74613;BME280;63119;51.788;8.824;2023-05-10T12:04:19;99524.72;;;20.16;59.72
74613;BME280;63119;51.788;8.824;2023-05-10T12:06:45;99523.78;;;20.09;61.51
74613;BME280;63119;51.788;8.824;2023-05-10T12:09:11;99517.88;;;20.44;58.55
74613;BME280;63119;51.788;8.824;2023-05-10T12:11:38;99520.25;;;20.39;57.88
74613;BME280;63119;51.788;8.824;2023-05-10T12:14:05;99515.88;;;20.84;58.69
74613;BME280;63119;51.788;8.824;2023-05-10T12:16:30;99519.06;;;20.42;58.13
74613;BME280;63119;51.788;8.824;2023-05-10T12:18:58;99524.50;;;20.56;59.37
74613;BME280;63119;51.788;8.824;2023-05-10T12:21:24;99521.91;;;20.40;57.23
74613;BME280;63119;51.788;8.824;2023-05-10T12:23:54;99523.84;;;19.93;57.95
74613;BME280;63119;51.788;8.824;2023-05-10T12:26:24;99527.81;;;20.05;59.10
74613;BME280;63119;51.788;8.824;2023-05-10T12:28:50;99533.94;;;19.83;60.43
74613;BME280;63119;51.788;8.824;2023-05-10T12:31:15;99537.66;;;19.74;61.90
74613;BME280;63119;51.788;8.824;2023-05-10T12:33:42;99548.13;;;19.52;63.13
74613;BME280;63119;51.788;8.824;2023-05-10T12:36:12;99556.72;;;19.16;64.82
74613;BME280;63119;51.788;8.824;2023-05-10T12:38:43;99565.63;;;18.92;66.20
74613;BME280;63119;51.788;8.824;2023-05-10T12:41:15;99569.63;;;18.88;67.57
74613;BME280;63119;51.788;8.824;2023-05-10T12:43:40;99575.19;;;18.78;70.61
74613;BME280;63119;51.788;8.824;2023-05-10T12:46:07;99560.56;;;18.73;70.08
74613;BME280;63119;51.788;8.824;2023-05-10T12:48:34;99559.78;;;18.30;70.23
74613;BME280;63119;51.788;8.824;2023-05-10T12:51:01;99575.28;;;18.52;69.87
74613;BME280;63119;51.788;8.824;2023-05-10T12:53:26;99577.63;;;18.55;70.25
74613;BME280;63119;51.788;8.824;2023-05-10T12:55:51;99580.66;;;18.52;68.63
74613;BME280;63119;51.788;8.824;2023-05-10T12:58:17;99576.31;;;18.68;68.96
74613;BME280;63119;51.788;8.824;2023-05-10T13:00:42;99578.34;;;18.82;67.92
74613;BME280;63119;51.788;8.824;2023-05-10T13:03:08;99582.34;;;18.70;67.12
74613;BME280;63119;51.788;8.824;2023-05-10T13:05:34;99584.91;;;18.87;67.45
74613;BME280;63119;51.788;8.824;2023-05-10T13:07:59;99585.41;;;18.99;67.03
74613;BME280;63119;51.788;8.824;2023-05-10T13:10:24;99579.69;;;19.02;64.77
74613;BME280;63119;51.788;8.824;2023-05-10T13:12:50;99576.19;;;18.93;63.72
74613;BME280;63119;51.788;8.824;2023-05-10T13:15:15;99578.84;;;19.09;64.38
74613;BME280;63119;51.788;8.824;2023-05-10T13:17:40;99583.06;;;18.96;63.04
74613;BME280;63119;51.788;8.824;2023-05-10T13:20:08;99574.00;;;19.05;64.32
74613;BME280;63119;51.788;8.824;2023-05-10T13:22:34;99571.59;;;19.58;63.38
74613;BME280;63119;51.788;8.824;2023-05-10T13:24:59;99572.19;;;19.93;62.49
74613;BME280;63119;51.788;8.824;2023-05-10T13:27:24;99572.00;;;19.94;61.92